sensor_id;sensor_type;location;lat;lon;timestamp;pressure;altitude;pressure_sealevel;temperature;humidity
47522;BME280;32291;52.010;4.446;2023-04-27T00:00:17;80092.84;;;-144.67;100.00
47522;BME280;32291;52.010;4.446;2023-04-27T00:01:19;80099.28;;;-144.67;100.00
47522;BME280;32291;52.010;4.446;2023-04-27T00:02:21;80103.56;;;-144.67;100.00
47522;BME280;32291;52.010;4.446;2023-04-27T00:03:23;80101.41;;;-144.67;100.00
47522;BME280;32291;52.010;4.446;2023-04-27T00:04:25;80105.69;;;-144.67;100.00
47522;BME280;32291;52.010;4.446;2023-04-27T00:05:26;80116.41;;;-144.67;100.00
47522;BME280;32291;52.010;4.446;2023-04-27T00:06:28;80116.41;;;-144.67;100.00
47522;BME280;32291;52.010;4.446;2023-04-27T00:07:30;80116.41;;;-144.67;100.00
47522;BME280;32291;52.010;4.446;2023-04-27T00:08:33;80107.84;;;-144.67;100.00
47522;BME280;32291;52.010;4.446;2023-04-27T00:09:34;80099.28;;;-144.67;100.00
47522;BME280;32291;52.010;4.446;2023-04-27T00:10:36;80099.28;;;-144.67;100.00
47522;BME280;32291;52.010;4.446;2023-04-27T00:11:37;80103.56;;;-144.67;100.00
47522;BME280;32291;52.010;4.446;2023-04-27T00:12:39;80090.72;;;-144.67;100.00
47522;BME280;32291;52.010;4.446;2023-04-27T00:13:43;80095.00;;;-144.67;100.00
47522;BME280;32291;52.010;4.446;2023-04-27T00:14:44;80095.00;;;-144.67;100.00
47522;BME280;32291;52.010;4.446;2023-04-27T00:15:46;80103.56;;;-144.67;100.00
47522;BME280;32291;52.010;4.446;2023-04-27T00:16:48;80112.13;;;-144.67;100.00
47522;BME280;32291;52.010;4.446;2023-04-27T00:17:50;80114.28;;;-144.67;100.00
47522;BME280;32291;52.010;4.446;2023-04-27T00:18:52;80120.69;;;-144.67;100.00
47522;BME280;32291;52.010;4.446;2023-04-27T00:19:54;80124.97;;;-144.67;100.00
47522;BME280;32291;52.010;4.446;2023-04-27T00:20:56;80129.28;;;-144.67;100.00
47522;BME280;32291;52.010;4.446;2023-04-27T00:21:58;80129.28;;;-144.67;100.00
47522;BME280;32291;52.010;4.446;2023-04-27T00:23:00;80129.28;;;-144.67;100.00
47522;BME280;32291;52.010;4.446;2023-04-27T00:24:02;80133.56;;;-144.67;100.00
47522;BME280;32291;52.010;4.446;2023-04-27T00:25:05;80137.84;;;-144.67;100.00
47522;BME280;32291;52.010;4.446;2023-04-27T00:26:07;80135.69;;;-144.67;100.00
47522;BME280;32291;52.010;4.446;2023-04-27T00:27:09;80146.41;;;-144.67;100.00
47522;BME280;32291;52.010;4.446;2023-04-27T00:28:13;80142.13;;;-144.67;100.00
47522;BME280;32291;52.010;4.446;2023-04-27T00:29:15;80133.56;;;-144.67;100.00
47522;BME280;32291;52.010;4.446;2023-04-27T00:30:16;80144.25;;;-144.67;100.00
47522;BME280;32291;52.010;4.446;2023-04-27T00:31:18;80142.13;;;-144.67;100.00
47522;BME280;32291;52.010;4.446;2023-04-27T00:32:20;80146.41;;;-144.67;100.00
47522;BME280;32291;52.010;4.446;2023-04-27T00:33:21;80146.41;;;-144.67;100.00
47522;BME280;32291;52.010;4.446;2023-04-27T00:34:23;80144.25;;;-144.67;100.00
47522;BME280;32291;52.010;4.446;2023-04-27T00:35:24;80146.41;;;-144.67;100.00
47522;BME280;32291;52.010;4.446;2023-04-27T00:36:26;80150.69;;;-144.67;100.00
47522;BME280;32291;52.010;4.446;2023-04-27T00:37:28;80150.69;;;-144.67;100.00
47522;BME280;32291;52.010;4.446;2023-04-27T00:38:29;80152.84;;;-144.67;100.00
47522;BME280;32291;52.010;4.446;2023-04-27T00:39:33;80150.69;;;-144.67;100.00
47522;BME280;32291;52.010;4.446;2023-04-27T00:40:36;80154.97;;;-144.67;100.00
47522;BME280;32291;52.010;4.446;2023-04-27T00:41:38;80152.84;;;-144.67;100.00
47522;BME280;32291;52.010;4.446;2023-04-27T00:42:40;80157.13;;;-144.67;100.00
47522;BME280;32291;52.010;4.446;2023-04-27T00:43:44;80154.97;;;-144.67;100.00
47522;BME280;32291;52.010;4.446;2023-04-27T00:44:46;80152.84;;;-144.67;100.00
47522;BME280;32291;52.010;4.446;2023-04-27T00:45:47;80150.69;;;-144.67;100.00
47522;BME280;32291;52.010;4.446;2023-04-27T00:46:50;80152.84;;;-144.67;100.00
47522;BME280;32291;52.010;4.446;2023-04-27T00:47:51;80157.13;;;-144.67;100.00
47522;BME280;32291;52.010;4.446;2023-04-27T00:48:54;80154.97;;;-144.67;100.00
47522;BME280;32291;52.010;4.446;2023-04-27T00:49:57;80157.13;;;-144.67;100.00
47522;BME280;32291;52.010;4.446;2023-04-27T00:51:00;80165.69;;;-144.67;100.00
47522;BME280;32291;52.010;4.446;2023-04-27T00:52:01;80159.25;;;-144.67;100.00
47522;BME280;32291;52.010;4.446;2023-04-27T00:53:04;80167.81;;;-144.67;100.00
47522;BME280;32291;52.010;4.446;2023-04-27T00:54:08;80163.53;;;-144.67;100.00
47522;BME280;32291;52.010;4.446;2023-04-27T00:55:09;80165.69;;;-144.67;100.00
47522;BME280;32291;52.010;4.446;2023-04-27T00:56:12;80167.81;;;-144.67;100.00
47522;BME280;32291;52.010;4.446;2023-04-27T00:57:14;80161.41;;;-144.67;100.00
47522;BME280;32291;52.010;4.446;2023-04-27T00:58:17;80167.81;;;-144.67;100.00
47522;BME280;32291;52.010;4.446;2023-04-27T00:59:19;80163.53;;;-144.67;100.00
47522;BME280;32291;52.010;4.446;2023-04-27T01:00:21;80163.53;;;-144.67;100.00
47522;BME280;32291;52.010;4.446;2023-04-27T01:01:23;80167.81;;;-144.67;100.00
47522;BME280;32291;52.010;4.446;2023-04-27T01:02:25;80163.53;;;-144.67;100.00
47522;BME280;32291;52.010;4.446;2023-04-27T01:03:27;80167.81;;;-144.67;100.00
47522;BME280;32291;52.010;4.446;2023-04-27T01:04:29;80163.53;;;-144.67;100.00
47522;BME280;32291;52.010;4.446;2023-04-27T01:05:33;80167.81;;;-144.67;100.00
47522;BME280;32291;52.010;4.446;2023-04-27T01:06:36;80169.97;;;-144.67;100.00
47522;BME280;32291;52.010;4.446;2023-04-27T01:07:40;80167.81;;;-144.67;100.00
47522;BME280;32291;52.010;4.446;2023-04-27T01:08:41;80169.97;;;-144.67;100.00
47522;BME280;32291;52.010;4.446;2023-04-27T01:09:43;80167.81;;;-144.67;100.00
47522;BME280;32291;52.010;4.446;2023-04-27T01:10:45;80180.69;;;-144.67;100.00
47522;BME280;32291;52.010;4.446;2023-04-27T01:11:47;80180.69;;;-144.67;100.00
47522;BME280;32291;52.010;4.446;2023-04-27T01:12:48;80178.53;;;-144.67;100.00
47522;BME280;32291;52.010;4.446;2023-04-27T01:13:51;80176.41;;;-144.67;100.00
47522;BME280;32291;52.010;4.446;2023-04-27T01:14:52;80172.09;;;-144.67;100.00
47522;BME280;32291;52.010;4.446;2023-04-27T01:15:54;80167.81;;;-144.67;100.00
47522;BME280;32291;52.010;4.446;2023-04-27T01:16:56;80172.09;;;-144.67;100.00
47522;BME280;32291;52.010;4.446;2023-04-27T01:18:00;80174.25;;;-144.67;100.00
47522;BME280;32291;52.010;4.446;2023-04-27T01:19:02;80174.25;;;-144.67;100.00
47522;BME280;32291;52.010;4.446;2023-04-27T01:20:05;80174.25;;;-144.67;100.00
47522;BME280;32291;52.010;4.446;2023-04-27T01:21:09;80180.69;;;-144.67;100.00
47522;BME280;32291;52.010;4.446;2023-04-27T01:22:10;80176.41;;;-144.67;100.00
47522;BME280;32291;52.010;4.446;2023-04-27T01:23:14;80167.81;;;-144.67;100.00
47522;BME280;32291;52.010;4.446;2023-04-27T01:24:16;80163.53;;;-144.67;100.00
47522;BME280;32291;52.010;4.446;2023-04-27T01:25:17;80163.53;;;-144.67;100.00
47522;BME280;32291;52.010;4.446;2023-04-27T01:26:20;80161.41;;;-144.67;100.00
47522;BME280;32291;52.010;4.446;2023-04-27T01:27:23;80163.53;;;-144.67;100.00
47522;BME280;32291;52.010;4.446;2023-04-27T01:28:25;80159.25;;;-144.67;100.00
47522;BME280;32291;52.010;4.446;2023-04-27T01:29:27;80163.53;;;-144.67;100.00
47522;BME280;32291;52.010;4.446;2023-04-27T01:30:29;80163.53;;;-144.67;100.00
47522;BME280;32291;52.010;4.446;2023-04-27T01:31:30;80163.53;;;-144.67;100.00
47522;BME280;32291;52.010;4.446;2023-04-27T01:32:32;80172.09;;;-144.67;100.00
47522;BME280;32291;52.010;4.446;2023-04-27T01:33:33;80172.09;;;-144.67;100.00
47522;BME280;32291;52.010;4.446;2023-04-27T01:34:35;80180.69;;;-144.67;100.00
47522;BME280;32291;52.010;4.446;2023-04-27T01:35:37;80178.53;;;-144.67;100.00
47522;BME280;32291;52.010;4.446;2023-04-27T01:36:39;80174.25;;;-144.67;100.00
47522;BME280;32291;52.010;4.446;2023-04-27T01:37:41;80172.09;;;-144.67;100.00
47522;BME280;32291;52.010;4.446;2023-04-27T01:38:43;80178.53;;;-144.67;100.00
47522;BME280;32291;52.010;4.446;2023-04-27T01:39:45;80182.81;;;-144.67;100.00
47522;BME280;32291;52.010;4.446;2023-04-27T01:40:47;80187.09;;;-144.67;100.00
47522;BME280;32291;52.010;4.446;2023-04-27T01:41:49;80184.97;;;-144.67;100.00
47522;BME280;32291;52.010;4.446;2023-04-27T01:42:51;80187.09;;;-144.67;100.00
47522;BME280;32291;52.010;4.446;2023-04-27T01:43:53;80187.09;;;-144.67;100.00
47522;BME280;32291;52.010;4.446;2023-04-27T01:44:55;80184.97;;;-144.67;100.00
47522;BME280;32291;52.010;4.446;2023-04-27T01:46:09;80193.53;;;-144.67;100.00
47522;BME280;32291;52.010;4.446;2023-04-27T01:47:11;80189.25;;;-144.67;100.00
47522;BME280;32291;52.010;4.446;2023-04-27T01:48:15;80189.25;;;-144.67;100.00
47522;BME280;32291;52.010;4.446;2023-04-27T01:49:17;80187.09;;;-144.67;100.00
47522;BME280;32291;52.010;4.446;2023-04-27T01:50:19;80189.25;;;-144.67;100.00
47522;BME280;32291;52.010;4.446;2023-04-27T01:51:20;80189.25;;;-144.67;100.00
47522;BME280;32291;52.010;4.446;2023-04-27T01:52:22;80197.81;;;-144.67;100.00
47522;BME280;32291;52.010;4.446;2023-04-27T01:53:23;80197.81;;;-144.67;100.00
47522;BME280;32291;52.010;4.446;2023-04-27T01:54:25;80195.69;;;-144.67;100.00
47522;BME280;32291;52.010;4.446;2023-04-27T01:55:27;80204.25;;;-144.67;100.00
47522;BME280;32291;52.010;4.446;2023-04-27T01:56:28;80197.81;;;-144.67;100.00
47522;BME280;32291;52.010;4.446;2023-04-27T01:57:30;80197.81;;;-144.67;100.00
47522;BME280;32291;52.010;4.446;2023-04-27T01:58:32;80204.25;;;-144.67;100.00
47522;BME280;32291;52.010;4.446;2023-04-27T01:59:33;80199.97;;;-144.67;100.00
47522;BME280;32291;52.010;4.446;2023-04-27T02:00:35;80202.09;;;-144.67;100.00
47522;BME280;32291;52.010;4.446;2023-04-27T02:01:36;80199.97;;;-144.67;100.00
47522;BME280;32291;52.010;4.446;2023-04-27T02:02:38;80199.97;;;-144.67;100.00
47522;BME280;32291;52.010;4.446;2023-04-27T02:03:40;80197.81;;;-144.67;100.00
47522;BME280;32291;52.010;4.446;2023-04-27T02:04:42;80193.53;;;-144.67;100.00
47522;BME280;32291;52.010;4.446;2023-04-27T02:05:44;80199.97;;;-144.67;100.00
47522;BME280;32291;52.010;4.446;2023-04-27T02:06:46;80202.09;;;-144.67;100.00
47522;BME280;32291;52.010;4.446;2023-04-27T02:07:49;80195.69;;;-144.67;100.00
47522;BME280;32291;52.010;4.446;2023-04-27T02:08:50;80202.09;;;-144.67;100.00
47522;BME280;32291;52.010;4.446;2023-04-27T02:09:52;80197.81;;;-144.67;100.00
47522;BME280;32291;52.010;4.446;2023-04-27T02:10:54;80204.25;;;-144.67;100.00
47522;BME280;32291;52.010;4.446;2023-04-27T02:11:56;80199.97;;;-144.67;100.00
47522;BME280;32291;52.010;4.446;2023-04-27T02:12:57;80193.53;;;-144.67;100.00
47522;BME280;32291;52.010;4.446;2023-04-27T02:13:59;80191.38;;;-144.67;100.00
47522;BME280;32291;52.010;4.446;2023-04-27T02:15:01;80189.25;;;-144.67;100.00
47522;BME280;32291;52.010;4.446;2023-04-27T02:16:04;80189.25;;;-144.67;100.00
47522;BME280;32291;52.010;4.446;2023-04-27T02:17:06;80189.25;;;-144.67;100.00
47522;BME280;32291;52.010;4.446;2023-04-27T02:18:08;80180.69;;;-144.67;100.00
47522;BME280;32291;52.010;4.446;2023-04-27T02:19:09;80167.81;;;-144.67;100.00
47522;BME280;32291;52.010;4.446;2023-04-27T02:20:11;80167.81;;;-144.67;100.00
47522;BME280;32291;52.010;4.446;2023-04-27T02:21:14;80159.25;;;-144.67;100.00
47522;BME280;32291;52.010;4.446;2023-04-27T02:22:15;80157.13;;;-144.67;100.00
47522;BME280;32291;52.010;4.446;2023-04-27T02:23:17;80154.97;;;-144.67;100.00
47522;BME280;32291;52.010;4.446;2023-04-27T02:24:19;80152.84;;;-144.67;100.00
47522;BME280;32291;52.010;4.446;2023-04-27T02:25:21;80152.84;;;-144.67;100.00
47522;BME280;32291;52.010;4.446;2023-04-27T02:26:22;80150.69;;;-144.67;100.00
47522;BME280;32291;52.010;4.446;2023-04-27T02:27:29;80142.13;;;-144.67;100.00
47522;BME280;32291;52.010;4.446;2023-04-27T02:28:31;80133.56;;;-144.67;100.00
47522;BME280;32291;52.010;4.446;2023-04-27T02:29:33;80129.28;;;-144.67;100.00
47522;BME280;32291;52.010;4.446;2023-04-27T02:30:39;80124.97;;;-144.67;100.00
47522;BME280;32291;52.010;4.446;2023-04-27T02:31:40;80127.13;;;-144.67;100.00
47522;BME280;32291;52.010;4.446;2023-04-27T02:32:42;80129.28;;;-144.67;100.00
47522;BME280;32291;52.010;4.446;2023-04-27T02:33:44;80127.13;;;-144.67;100.00
47522;BME280;32291;52.010;4.446;2023-04-27T02:34:46;80129.28;;;-144.67;100.00
47522;BME280;32291;52.010;4.446;2023-04-27T02:35:47;80129.28;;;-144.67;100.00
47522;BME280;32291;52.010;4.446;2023-04-27T02:36:49;80120.69;;;-144.67;100.00
47522;BME280;32291;52.010;4.446;2023-04-27T02:37:51;80122.84;;;-144.67;100.00
47522;BME280;32291;52.010;4.446;2023-04-27T02:38:52;80118.56;;;-144.67;100.00
47522;BME280;32291;52.010;4.446;2023-04-27T02:39:54;80114.28;;;-144.67;100.00
47522;BME280;32291;52.010;4.446;2023-04-27T02:40:56;80118.56;;;-144.67;100.00
47522;BME280;32291;52.010;4.446;2023-04-27T02:41:58;80120.69;;;-144.67;100.00
47522;BME280;32291;52.010;4.446;2023-04-27T02:43:00;80118.56;;;-144.67;100.00
47522;BME280;32291;52.010;4.446;2023-04-27T02:44:01;80124.97;;;-144.67;100.00
47522;BME280;32291;52.010;4.446;2023-04-27T02:45:06;80114.28;;;-144.67;100.00
47522;BME280;32291;52.010;4.446;2023-04-27T02:46:08;80107.84;;;-144.67;100.00
47522;BME280;32291;52.010;4.446;2023-04-27T02:47:10;80110.00;;;-144.67;100.00
47522;BME280;32291;52.010;4.446;2023-04-27T02:48:12;80103.56;;;-144.67;100.00
47522;BME280;32291;52.010;4.446;2023-04-27T02:49:15;80103.56;;;-144.67;100.00
47522;BME280;32291;52.010;4.446;2023-04-27T02:50:17;80107.84;;;-144.67;100.00
47522;BME280;32291;52.010;4.446;2023-04-27T02:51:18;80112.13;;;-144.67;100.00
47522;BME280;32291;52.010;4.446;2023-04-27T02:52:20;80116.41;;;-144.67;100.00
47522;BME280;32291;52.010;4.446;2023-04-27T02:53:22;80112.13;;;-144.67;100.00
47522;BME280;32291;52.010;4.446;2023-04-27T02:54:23;80110.00;;;-144.67;100.00
47522;BME280;32291;52.010;4.446;2023-04-27T02:55:26;80112.13;;;-144.67;100.00
47522;BME280;32291;52.010;4.446;2023-04-27T02:56:28;80107.84;;;-144.67;100.00
47522;BME280;32291;52.010;4.446;2023-04-27T02:57:30;80118.56;;;-144.67;100.00
47522;BME280;32291;52.010;4.446;2023-04-27T02:58:32;80124.97;;;-144.67;100.00
47522;BME280;32291;52.010;4.446;2023-04-27T02:59:33;80133.56;;;-144.67;100.00
47522;BME280;32291;52.010;4.446;2023-04-27T03:00:35;80131.41;;;-144.67;100.00
47522;BME280;32291;52.010;4.446;2023-04-27T03:01:36;80137.84;;;-144.67;100.00
47522;BME280;32291;52.010;4.446;2023-04-27T03:02:38;80146.41;;;-144.67;100.00
47522;BME280;32291;52.010;4.446;2023-04-27T03:03:40;80139.97;;;-144.67;100.00
47522;BME280;32291;52.010;4.446;2023-04-27T03:04:42;80139.97;;;-144.67;100.00
47522;BME280;32291;52.010;4.446;2023-04-27T03:05:44;80144.25;;;-144.67;100.00
47522;BME280;32291;52.010;4.446;2023-04-27T03:06:46;80142.13;;;-144.67;100.00
47522;BME280;32291;52.010;4.446;2023-04-27T03:07:48;80150.69;;;-144.67;100.00
47522;BME280;32291;52.010;4.446;2023-04-27T03:08:51;80154.97;;;-144.67;100.00
47522;BME280;32291;52.010;4.446;2023-04-27T03:09:52;80146.41;;;-144.67;100.00
47522;BME280;32291;52.010;4.446;2023-04-27T03:10:54;80150.69;;;-144.67;100.00
47522;BME280;32291;52.010;4.446;2023-04-27T03:11:56;80154.97;;;-144.67;100.00
47522;BME280;32291;52.010;4.446;2023-04-27T03:12:58;80154.97;;;-144.67;100.00
47522;BME280;32291;52.010;4.446;2023-04-27T03:13:59;80154.97;;;-144.67;100.00
47522;BME280;32291;52.010;4.446;2023-04-27T03:15:02;80159.25;;;-144.67;100.00
47522;BME280;32291;52.010;4.446;2023-04-27T03:16:05;80161.41;;;-144.67;100.00
47522;BME280;32291;52.010;4.446;2023-04-27T03:17:06;80167.81;;;-144.67;100.00
47522;BME280;32291;52.010;4.446;2023-04-27T03:18:08;80169.97;;;-144.67;100.00
47522;BME280;32291;52.010;4.446;2023-04-27T03:19:09;80167.81;;;-144.67;100.00
47522;BME280;32291;52.010;4.446;2023-04-27T03:20:11;80172.09;;;-144.67;100.00
47522;BME280;32291;52.010;4.446;2023-04-27T03:21:13;80176.41;;;-144.67;100.00
47522;BME280;32291;52.010;4.446;2023-04-27T03:22:17;80178.53;;;-144.67;100.00
47522;BME280;32291;52.010;4.446;2023-04-27T03:23:19;80180.69;;;-144.67;100.00
47522;BME280;32291;52.010;4.446;2023-04-27T03:24:20;80184.97;;;-144.67;100.00
47522;BME280;32291;52.010;4.446;2023-04-27T03:25:25;80189.25;;;-144.67;100.00
47522;BME280;32291;52.010;4.446;2023-04-27T03:26:27;80189.25;;;-144.67;100.00
47522;BME280;32291;52.010;4.446;2023-04-27T03:27:29;80178.53;;;-144.67;100.00
47522;BME280;32291;52.010;4.446;2023-04-27T03:28:30;80180.69;;;-144.67;100.00
47522;BME280;32291;52.010;4.446;2023-04-27T03:29:32;80184.97;;;-144.67;100.00
47522;BME280;32291;52.010;4.446;2023-04-27T03:30:34;80180.69;;;-144.67;100.00
47522;BME280;32291;52.010;4.446;2023-04-27T03:31:35;80180.69;;;-144.67;100.00
47522;BME280;32291;52.010;4.446;2023-04-27T03:32:37;80180.69;;;-144.67;100.00
47522;BME280;32291;52.010;4.446;2023-04-27T03:33:40;80174.25;;;-144.67;100.00
47522;BME280;32291;52.010;4.446;2023-04-27T03:34:42;80172.09;;;-144.67;100.00
47522;BME280;32291;52.010;4.446;2023-04-27T03:35:43;80163.53;;;-144.67;100.00
47522;BME280;32291;52.010;4.446;2023-04-27T03:36:45;80167.81;;;-144.67;100.00
47522;BME280;32291;52.010;4.446;2023-04-27T03:37:47;80152.84;;;-144.67;100.00
47522;BME280;32291;52.010;4.446;2023-04-27T03:38:48;80148.53;;;-144.67;100.00
47522;BME280;32291;52.010;4.446;2023-04-27T03:39:51;80139.97;;;-144.67;100.00
47522;BME280;32291;52.010;4.446;2023-04-27T03:40:53;80142.13;;;-144.67;100.00
47522;BME280;32291;52.010;4.446;2023-04-27T03:41:55;80142.13;;;-144.67;100.00
47522;BME280;32291;52.010;4.446;2023-04-27T03:42:58;80148.53;;;-144.67;100.00
47522;BME280;32291;52.010;4.446;2023-04-27T03:43:59;80142.13;;;-144.67;100.00
47522;BME280;32291;52.010;4.446;2023-04-27T03:45:01;80142.13;;;-144.67;100.00
47522;BME280;32291;52.010;4.446;2023-04-27T03:46:03;80133.56;;;-144.67;100.00
47522;BME280;32291;52.010;4.446;2023-04-27T03:47:05;80133.56;;;-144.67;100.00
47522;BME280;32291;52.010;4.446;2023-04-27T03:48:09;80129.28;;;-144.67;100.00
47522;BME280;32291;52.010;4.446;2023-04-27T03:49:11;80129.28;;;-144.67;100.00
47522;BME280;32291;52.010;4.446;2023-04-27T03:50:12;80131.41;;;-144.67;100.00
47522;BME280;32291;52.010;4.446;2023-04-27T03:51:14;80133.56;;;-144.67;100.00
47522;BME280;32291;52.010;4.446;2023-04-27T03:52:16;80133.56;;;-144.67;100.00
47522;BME280;32291;52.010;4.446;2023-04-27T03:53:18;80142.13;;;-144.67;100.00
47522;BME280;32291;52.010;4.446;2023-04-27T03:54:20;80131.41;;;-144.67;100.00
47522;BME280;32291;52.010;4.446;2023-04-27T03:55:22;80124.97;;;-144.67;100.00
47522;BME280;32291;52.010;4.446;2023-04-27T03:56:25;80129.28;;;-144.67;100.00
47522;BME280;32291;52.010;4.446;2023-04-27T03:57:26;80131.41;;;-144.67;100.00
47522;BME280;32291;52.010;4.446;2023-04-27T03:58:28;80131.41;;;-144.67;100.00
47522;BME280;32291;52.010;4.446;2023-04-27T03:59:29;80137.84;;;-144.67;100.00
47522;BME280;32291;52.010;4.446;2023-04-27T04:00:33;80139.97;;;-144.67;100.00
47522;BME280;32291;52.010;4.446;2023-04-27T04:01:34;80137.84;;;-144.67;100.00
47522;BME280;32291;52.010;4.446;2023-04-27T04:02:37;80150.69;;;-144.67;100.00
47522;BME280;32291;52.010;4.446;2023-04-27T04:03:38;80150.69;;;-144.67;100.00
47522;BME280;32291;52.010;4.446;2023-04-27T04:04:40;80150.69;;;-144.67;100.00
47522;BME280;32291;52.010;4.446;2023-04-27T04:05:42;80154.97;;;-144.67;100.00
47522;BME280;32291;52.010;4.446;2023-04-27T04:06:47;80154.97;;;-144.67;100.00
47522;BME280;32291;52.010;4.446;2023-04-27T04:07:49;80150.69;;;-144.67;100.00
47522;BME280;32291;52.010;4.446;2023-04-27T04:08:50;80154.97;;;-144.67;100.00
47522;BME280;32291;52.010;4.446;2023-04-27T04:09:52;80163.53;;;-144.67;100.00
47522;BME280;32291;52.010;4.446;2023-04-27T04:10:55;80165.69;;;-144.67;100.00
47522;BME280;32291;52.010;4.446;2023-04-27T04:11:56;80180.69;;;-144.67;100.00
47522;BME280;32291;52.010;4.446;2023-04-27T04:12:58;80178.53;;;-144.67;100.00
47522;BME280;32291;52.010;4.446;2023-04-27T04:14:00;80180.69;;;-144.67;100.00
47522;BME280;32291;52.010;4.446;2023-04-27T04:15:05;80189.25;;;-144.67;100.00
47522;BME280;32291;52.010;4.446;2023-04-27T04:16:08;80184.97;;;-144.67;100.00
47522;BME280;32291;52.010;4.446;2023-04-27T04:17:10;80191.38;;;-144.67;100.00
47522;BME280;32291;52.010;4.446;2023-04-27T04:18:12;80189.25;;;-144.67;100.00
47522;BME280;32291;52.010;4.446;2023-04-27T04:19:13;80202.09;;;-144.67;100.00
47522;BME280;32291;52.010;4.446;2023-04-27T04:20:15;80197.81;;;-144.67;100.00
47522;BME280;32291;52.010;4.446;2023-04-27T04:21:17;80195.69;;;-144.67;100.00
47522;BME280;32291;52.010;4.446;2023-04-27T04:22:19;80202.09;;;-144.67;100.00
47522;BME280;32291;52.010;4.446;2023-04-27T04:23:21;80206.38;;;-144.67;100.00
47522;BME280;32291;52.010;4.446;2023-04-27T04:24:22;80210.66;;;-144.67;100.00
47522;BME280;32291;52.010;4.446;2023-04-27T04:25:24;80214.94;;;-144.67;100.00
47522;BME280;32291;52.010;4.446;2023-04-27T04:26:26;80214.94;;;-144.67;100.00
47522;BME280;32291;52.010;4.446;2023-04-27T04:27:28;80223.53;;;-144.67;100.00
47522;BME280;32291;52.010;4.446;2023-04-27T04:28:29;80223.53;;;-144.67;100.00
47522;BME280;32291;52.010;4.446;2023-04-27T04:29:32;80219.25;;;-144.67;100.00
47522;BME280;32291;52.010;4.446;2023-04-27T04:30:33;80223.53;;;-144.67;100.00
47522;BME280;32291;52.010;4.446;2023-04-27T04:31:35;80223.53;;;-144.67;100.00
47522;BME280;32291;52.010;4.446;2023-04-27T04:32:36;80225.66;;;-144.67;100.00
47522;BME280;32291;52.010;4.446;2023-04-27T04:33:38;80223.53;;;-144.67;100.00
47522;BME280;32291;52.010;4.446;2023-04-27T04:34:40;80227.81;;;-144.67;100.00
47522;BME280;32291;52.010;4.446;2023-04-27T04:35:42;80223.53;;;-144.67;100.00
47522;BME280;32291;52.010;4.446;2023-04-27T04:36:44;80227.81;;;-144.67;100.00
47522;BME280;32291;52.010;4.446;2023-04-27T04:37:45;80236.38;;;-144.67;100.00
47522;BME280;32291;52.010;4.446;2023-04-27T04:38:47;80227.81;;;-144.67;100.00
47522;BME280;32291;52.010;4.446;2023-04-27T04:39:49;80232.09;;;-144.67;100.00
47522;BME280;32291;52.010;4.446;2023-04-27T04:40:51;80223.53;;;-144.67;100.00
47522;BME280;32291;52.010;4.446;2023-04-27T04:41:53;80227.81;;;-144.67;100.00
47522;BME280;32291;52.010;4.446;2023-04-27T04:42:55;80227.81;;;-144.67;100.00
47522;BME280;32291;52.010;4.446;2023-04-27T04:43:58;80232.09;;;-144.67;100.00
47522;BME280;32291;52.010;4.446;2023-04-27T04:45:00;80232.09;;;-144.67;100.00
47522;BME280;32291;52.010;4.446;2023-04-27T04:46:02;80229.94;;;-144.67;100.00
47522;BME280;32291;52.010;4.446;2023-04-27T04:47:04;80232.09;;;-144.67;100.00
47522;BME280;32291;52.010;4.446;2023-04-27T04:48:06;80232.09;;;-144.67;100.00
47522;BME280;32291;52.010;4.446;2023-04-27T04:49:08;80229.94;;;-144.67;100.00
47522;BME280;32291;52.010;4.446;2023-04-27T04:50:10;80234.22;;;-144.67;100.00
47522;BME280;32291;52.010;4.446;2023-04-27T04:51:12;80229.94;;;-144.67;100.00
47522;BME280;32291;52.010;4.446;2023-04-27T04:52:14;80225.66;;;-144.67;100.00
47522;BME280;32291;52.010;4.446;2023-04-27T04:53:16;80227.81;;;-144.67;100.00
47522;BME280;32291;52.010;4.446;2023-04-27T04:54:18;80210.66;;;-144.67;100.00
47522;BME280;32291;52.010;4.446;2023-04-27T04:55:20;80206.38;;;-144.67;100.00
47522;BME280;32291;52.010;4.446;2023-04-27T04:56:22;80191.38;;;-144.67;100.00
47522;BME280;32291;52.010;4.446;2023-04-27T04:57:23;80187.09;;;-144.67;100.00
47522;BME280;32291;52.010;4.446;2023-04-27T04:58:25;80178.53;;;-144.67;100.00
47522;BME280;32291;52.010;4.446;2023-04-27T04:59:26;80172.09;;;-144.67;100.00
47522;BME280;32291;52.010;4.446;2023-04-27T05:00:28;80163.53;;;-144.67;100.00
47522;BME280;32291;52.010;4.446;2023-04-27T05:01:30;80167.81;;;-144.67;100.00
47522;BME280;32291;52.010;4.446;2023-04-27T05:02:32;80157.13;;;-144.67;100.00
47522;BME280;32291;52.010;4.446;2023-04-27T05:03:34;80150.69;;;-144.67;100.00
47522;BME280;32291;52.010;4.446;2023-04-27T05:04:36;80137.84;;;-144.67;100.00
47522;BME280;32291;52.010;4.446;2023-04-27T05:05:37;80139.97;;;-144.67;100.00
47522;BME280;32291;52.010;4.446;2023-04-27T05:06:39;80133.56;;;-144.67;100.00
47522;BME280;32291;52.010;4.446;2023-04-27T05:07:41;80135.69;;;-144.67;100.00
47522;BME280;32291;52.010;4.446;2023-04-27T05:08:43;80135.69;;;-144.67;100.00
47522;BME280;32291;52.010;4.446;2023-04-27T05:09:45;80137.84;;;-144.67;100.00
47522;BME280;32291;52.010;4.446;2023-04-27T05:10:52;80133.56;;;-144.67;100.00
47522;BME280;32291;52.010;4.446;2023-04-27T05:11:54;80133.56;;;-144.67;100.00
47522;BME280;32291;52.010;4.446;2023-04-27T05:12:55;80133.56;;;-144.67;100.00
47522;BME280;32291;52.010;4.446;2023-04-27T05:13:57;80133.56;;;-144.67;100.00
47522;BME280;32291;52.010;4.446;2023-04-27T05:14:58;80133.56;;;-144.67;100.00
47522;BME280;32291;52.010;4.446;2023-04-27T05:16:06;80131.41;;;-144.67;100.00